Time;durP1;ratioP1;P1;durP2;ratioP2;P2;SDS_P1;SDS_P2;PMS_P1;PMS_P2;Temp;Humidity;BMP_temperature;BMP_pressure;BME280_temperature;BME280_humidity;BME280_pressure;Samples;Min_cycle;Max_cycle;Signal;HPM_P1;HPM_P2
2021/07/26 00:00:14;;;;;;;0.40;0.30;;;27.60;52.30;;;;;;5053960;28;20045;-42
2021/07/26 00:02:44;;;;;;;0.98;0.47;;;27.60;52.30;;;;;;5066305;28;20490;-41
2021/07/26 00:05:11;;;;;;;1.40;0.40;;;27.60;52.20;;;;;;5055718;28;20515;-42
2021/07/26 00:07:39;;;;;;;0.38;0.38;;;27.70;52.30;;;;;;5055136;28;20510;-43
2021/07/26 00:10:07;;;;;;;4.40;0.40;;;27.70;52.30;;;;;;5063572;28;20048;-41
2021/07/26 00:12:35;;;;;;;0.30;0.20;;;27.70;52.30;;;;;;5052909;28;20426;-40
2021/07/26 00:15:02;;;;;;;0.90;0.20;;;27.70;52.20;;;;;;5054956;28;20056;-39
2021/07/26 00:17:30;;;;;;;0.68;0.35;;;27.70;52.20;;;;;;5055439;28;20052;-40
2021/07/26 00:19:58;;;;;;;0.50;0.50;;;27.70;52.30;;;;;;5058349;28;20124;-40
2021/07/26 00:22:25;;;;;;;0.60;0.20;;;27.70;52.20;;;;;;5063389;28;20638;-40
2021/07/26 00:24:52;;;;;;;6.57;1.10;;;27.80;52.30;;;;;;5062856;28;20055;-39
2021/07/26 00:27:19;;;;;;;0.40;0.32;;;27.80;52.30;;;;;;5056720;28;20128;-40
2021/07/26 00:29:46;;;;;;;0.73;0.43;;;27.80;52.30;;;;;;5061933;28;20131;-42
2021/07/26 00:32:13;;;;;;;0.55;0.55;;;27.80;52.20;;;;;;5068502;28;20119;-40
2021/07/26 00:34:40;;;;;;;0.95;0.40;;;27.80;52.20;;;;;;5068653;28;20048;-40
2021/07/26 00:37:13;;;;;;;1.30;0.47;;;27.80;52.20;;;;;;5068103;28;20049;-40
2021/07/26 00:39:41;;;;;;;1.25;0.50;;;27.80;52.20;;;;;;5066634;28;20041;-41
2021/07/26 00:42:08;;;;;;;0.63;0.52;;;27.80;52.20;;;;;;5058888;28;20044;-43
2021/07/26 00:44:35;;;;;;;1.85;0.30;;;27.90;52.20;;;;;;5060676;28;20045;-41
2021/07/26 00:47:03;;;;;;;0.40;0.40;;;27.90;52.20;;;;;;5059086;28;20593;-40
2021/07/26 00:49:30;;;;;;;0.50;0.47;;;27.90;52.20;;;;;;5062371;28;20584;-41
2021/07/26 00:51:59;;;;;;;0.95;0.68;;;27.90;52.30;;;;;;5066535;28;20144;-40
2021/07/26 00:54:31;;;;;;;1.95;0.90;;;27.90;52.20;;;;;;5056306;28;20132;-43
2021/07/26 00:57:00;;;;;;;2.85;1.10;;;27.90;52.20;;;;;;5059885;28;20126;-44
2021/07/26 00:59:27;;;;;;;0.85;0.40;;;27.90;52.20;;;;;;5066125;28;20119;-41
2021/07/26 01:01:54;;;;;;;1.38;0.47;;;27.90;52.10;;;;;;5067574;28;20087;-41
2021/07/26 01:04:22;;;;;;;1.52;1.15;;;28.00;52.20;;;;;;5064760;28;20040;-40
2021/07/26 01:06:50;;;;;;;0.73;0.45;;;28.00;52.20;;;;;;5062101;28;20114;-39
2021/07/26 01:09:17;;;;;;;1.38;1.27;;;28.00;52.70;;;;;;5056860;28;20124;-39
2021/07/26 01:11:46;;;;;;;1.95;0.30;;;28.00;52.00;;;;;;5067462;28;20399;-40
2021/07/26 01:14:16;;;;;;;1.55;0.57;;;28.00;52.00;;;;;;5060403;28;20060;-40
2021/07/26 01:16:43;;;;;;;1.20;0.50;;;28.00;52.00;;;;;;5060256;28;20051;-40
2021/07/26 01:19:10;;;;;;;0.70;0.70;;;28.00;52.00;;;;;;5051850;28;20049;-39
2021/07/26 01:21:38;;;;;;;0.65;0.60;;;28.00;51.90;;;;;;5080906;28;20036;-40
2021/07/26 01:24:06;;;;;;;2.10;0.57;;;28.00;51.90;;;;;;5053681;28;20188;-42
2021/07/26 01:26:34;;;;;;;1.63;0.68;;;28.00;51.90;;;;;;5057795;28;20060;-43
2021/07/26 01:29:03;;;;;;;1.65;0.80;;;28.00;51.90;;;;;;5061465;28;20044;-38
2021/07/26 01:31:30;;;;;;;0.90;0.65;;;28.00;51.80;;;;;;5065069;28;20040;-39
2021/07/26 01:33:57;;;;;;;2.75;0.80;;;28.00;51.80;;;;;;5054440;28;20036;-38
2021/07/26 01:36:25;;;;;;;3.13;0.55;;;28.00;51.80;;;;;;5057231;28;20457;-40
2021/07/26 01:38:53;;;;;;;1.02;0.55;;;28.00;51.80;;;;;;5057768;28;20048;-39
2021/07/26 01:41:23;;;;;;;2.72;0.82;;;28.00;51.70;;;;;;5063696;28;20048;-41
2021/07/26 01:44:01;;;;;;;0.70;0.70;;;28.00;51.70;;;;;;5064226;28;20654;-39
2021/07/26 01:46:40;;;;;;;0.88;0.63;;;28.00;51.70;;;;;;5056902;28;20053;-40
2021/07/26 01:49:19;;;;;;;1.50;0.60;;;28.00;51.70;;;;;;5053751;28;20131;-43
2021/07/26 01:51:48;;;;;;;0.88;0.57;;;28.00;51.70;;;;;;5054227;28;20072;-42
2021/07/26 01:54:16;;;;;;;2.97;0.82;;;28.00;51.70;;;;;;5067051;28;20054;-40
2021/07/26 01:56:44;;;;;;;0.55;0.55;;;28.00;51.70;;;;;;5057877;28;20076;-41
2021/07/26 01:59:11;;;;;;;0.50;0.50;;;28.00;51.70;;;;;;5058713;28;20517;-41
2021/07/26 02:01:39;;;;;;;0.68;0.60;;;28.00;51.60;;;;;;5053275;28;20068;-42
2021/07/26 02:04:06;;;;;;;0.60;0.40;;;28.00;51.70;;;;;;5065886;28;20119;-40
2021/07/26 02:06:33;;;;;;;0.70;0.50;;;28.00;52.20;;;;;;5050694;28;20090;-45
2021/07/26 02:09:00;;;;;;;0.88;0.57;;;28.00;51.60;;;;;;5064832;28;20395;-42
2021/07/26 02:11:28;;;;;;;0.70;0.70;;;28.00;51.50;;;;;;5066032;28;20140;-40
2021/07/26 02:13:55;;;;;;;0.50;0.50;;;28.00;51.50;;;;;;5060051;28;20039;-40
2021/07/26 02:16:22;;;;;;;1.10;0.77;;;28.00;51.50;;;;;;5054668;28;20580;-45
2021/07/26 02:18:49;;;;;;;0.82;0.60;;;28.00;51.40;;;;;;5055482;28;20043;-44
2021/07/26 02:21:17;;;;;;;3.70;0.55;;;28.00;51.40;;;;;;5066939;28;20079;-42
2021/07/26 02:23:44;;;;;;;0.60;0.60;;;28.00;51.40;;;;;;5056756;28;20528;-42
2021/07/26 02:26:11;;;;;;;0.57;0.45;;;28.00;51.40;;;;;;5064228;28;20123;-41
2021/07/26 02:28:40;;;;;;;1.77;1.17;;;28.00;51.40;;;;;;5065790;28;20032;-39
2021/07/26 02:31:08;;;;;;;1.13;0.40;;;28.00;51.40;;;;;;5053046;28;20048;-41
2021/07/26 02:33:35;;;;;;;1.80;0.80;;;28.00;51.40;;;;;;5055800;28;20041;-40
2021/07/26 02:36:02;;;;;;;0.40;0.40;;;28.00;51.40;;;;;;5053976;28;20049;-41
2021/07/26 02:38:29;;;;;;;0.57;0.47;;;28.00;51.40;;;;;;5065461;28;20028;-40
2021/07/26 02:40:56;;;;;;;1.92;0.95;;;28.00;51.40;;;;;;5065155;28;20120;-39
2021/07/26 02:43:23;;;;;;;2.08;0.77;;;28.00;51.40;;;;;;5063955;28;20192;-39
2021/07/26 02:45:51;;;;;;;0.57;0.40;;;28.00;51.40;;;;;;5079498;28;20037;-39
2021/07/26 02:48:18;;;;;;;2.30;0.77;;;28.00;51.50;;;;;;5065577;28;20047;-38
2021/07/26 02:50:45;;;;;;;1.10;0.73;;;28.00;51.00;;;;;;5065707;28;20056;-40
2021/07/26 02:53:12;;;;;;;2.50;1.27;;;28.00;50.30;;;;;;5059175;28;20120;-40
2021/07/26 02:55:40;;;;;;;2.40;1.65;;;27.90;49.70;;;;;;5063327;28;20113;-44
2021/07/26 02:58:07;;;;;;;1.30;0.90;;;27.80;49.50;;;;;;5054216;28;20051;-39
2021/07/26 03:00:34;;;;;;;2.20;2.00;;;27.80;49.50;;;;;;5053373;28;20136;-39
2021/07/26 03:03:03;;;;;;;4.18;1.75;;;27.70;49.30;;;;;;5063585;28;20777;-40
2021/07/26 03:05:33;;;;;;;2.38;2.22;;;27.60;49.20;;;;;;5065346;28;20128;-43
2021/07/26 03:08:00;;;;;;;1.70;1.58;;;27.50;49.10;;;;;;5062776;28;20050;-41
2021/07/26 03:10:27;;;;;;;7.70;2.58;;;27.40;49.10;;;;;;5056259;28;20744;-40
2021/07/26 03:12:54;;;;;;;3.88;3.50;;;27.40;49.20;;;;;;5063601;28;20245;-39
2021/07/26 03:15:23;;;;;;;5.43;2.75;;;27.30;49.20;;;;;;5051491;28;20053;-39
2021/07/26 03:17:50;;;;;;;4.38;2.75;;;27.20;49.20;;;;;;5057542;28;20044;-40
2021/07/26 03:20:18;;;;;;;3.03;2.42;;;27.10;49.20;;;;;;5061474;28;20143;-40
2021/07/26 03:23:02;;;;;;;3.42;2.88;;;27.10;49.30;;;;;;5063334;28;20049;-42
2021/07/26 03:25:30;;;;;;;5.50;3.53;;;27.00;49.30;;;;;;5055038;28;20037;-40
2021/07/26 03:27:59;;;;;;;7.38;3.28;;;26.90;49.50;;;;;;5063394;28;20044;-39
2021/07/26 03:30:27;;;;;;;3.25;2.63;;;26.80;49.50;;;;;;5064562;28;20040;-39
2021/07/26 03:32:54;;;;;;;3.80;2.35;;;26.80;49.60;;;;;;5056970;28;20045;-40
2021/07/26 03:35:23;;;;;;;3.35;2.78;;;26.70;49.60;;;;;;5059192;28;20041;-39
2021/07/26 03:37:51;;;;;;;2.20;1.98;;;26.60;49.70;;;;;;5059228;28;20138;-39
2021/07/26 03:40:20;;;;;;;2.55;2.28;;;26.60;49.80;;;;;;5055298;28;20043;-40
2021/07/26 03:42:48;;;;;;;2.92;2.33;;;26.50;49.90;;;;;;5053899;28;20122;-39
2021/07/26 03:45:18;;;;;;;2.95;2.75;;;26.50;50.10;;;;;;5054987;28;20536;-39
2021/07/26 03:47:45;;;;;;;2.90;2.70;;;26.40;50.10;;;;;;5055520;28;20036;-39
2021/07/26 03:50:14;;;;;;;4.32;2.65;;;26.30;50.10;;;;;;5056791;28;20128;-39
2021/07/26 03:52:47;;;;;;;3.35;1.92;;;26.30;50.30;;;;;;5055889;28;20051;-38
2021/07/26 03:55:16;;;;;;;2.35;2.15;;;26.20;50.30;;;;;;5052851;28;20040;-39
2021/07/26 03:57:43;;;;;;;4.20;2.25;;;26.20;50.50;;;;;;5051867;28;20041;-38
2021/07/26 04:00:12;;;;;;;2.35;2.15;;;26.10;51.10;;;;;;5064820;28;20116;-38
2021/07/26 04:02:40;;;;;;;2.53;2.15;;;26.10;51.30;;;;;;5065751;28;20039;-38
2021/07/26 04:05:12;;;;;;;3.00;2.55;;;26.00;50.70;;;;;;5060117;28;21788;-38
2021/07/26 04:07:40;;;;;;;3.05;1.90;;;26.00;50.80;;;;;;5055931;28;20413;-38
2021/07/26 04:10:11;;;;;;;3.83;2.55;;;25.90;50.80;;;;;;5051121;28;20632;-39
2021/07/26 04:12:40;;;;;;;1.67;1.58;;;25.90;51.00;;;;;;5048696;28;20053;-40
2021/07/26 04:15:10;;;;;;;4.18;2.10;;;25.90;51.10;;;;;;5052774;28;20049;-38
2021/07/26 04:17:38;;;;;;;1.50;1.33;;;25.80;51.20;;;;;;5064316;28;20044;-39
2021/07/26 04:20:06;;;;;;;1.50;1.40;;;25.80;51.30;;;;;;5060164;28;20040;-40
2021/07/26 04:22:34;;;;;;;3.45;1.35;;;25.70;51.30;;;;;;5055019;28;20056;-39
2021/07/26 04:25:01;;;;;;;2.05;1.52;;;25.70;51.40;;;;;;5051788;28;20123;-39
2021/07/26 04:27:48;;;;;;;5.15;3.50;;;25.60;51.40;;;;;;5048502;28;20072;-40
2021/07/26 04:30:16;;;;;;;2.20;1.52;;;25.60;51.50;;;;;;5053844;28;20048;-39
2021/07/26 04:32:44;;;;;;;4.00;1.48;;;25.60;51.60;;;;;;5065914;28;20071;-39
2021/07/26 04:35:12;;;;;;;2.38;1.48;;;25.60;51.80;;;;;;5062204;28;20052;-38
2021/07/26 04:37:39;;;;;;;1.73;1.63;;;25.50;51.80;;;;;;5062273;28;20045;-41
2021/07/26 04:40:08;;;;;;;1.48;1.30;;;25.50;52.00;;;;;;5058155;28;20037;-38
2021/07/26 04:42:36;;;;;;;1.77;1.08;;;25.50;52.10;;;;;;5046519;28;20067;-38
2021/07/26 04:45:07;;;;;;;2.95;1.20;;;25.50;52.20;;;;;;5060933;28;20044;-39
2021/07/26 04:47:35;;;;;;;7.38;1.52;;;25.50;52.30;;;;;;5063948;28;20037;-39
2021/07/26 04:50:02;;;;;;;3.33;1.17;;;25.40;52.50;;;;;;5061395;28;20047;-39
2021/07/26 04:52:29;;;;;;;2.17;1.42;;;25.40;52.70;;;;;;5053209;28;20044;-38
2021/07/26 04:54:56;;;;;;;5.75;1.65;;;25.40;52.80;;;;;;5062716;28;20121;-43
2021/07/26 04:57:23;;;;;;;3.60;1.30;;;25.40;52.90;;;;;;5060329;28;20520;-42
2021/07/26 04:59:50;;;;;;;1.13;0.90;;;25.30;53.00;;;;;;5063053;28;20208;-40
2021/07/26 05:02:18;;;;;;;2.38;1.27;;;25.30;53.10;;;;;;5062034;28;20130;-39
2021/07/26 05:04:45;;;;;;;1.05;0.80;;;25.30;53.20;;;;;;5061507;28;20114;-40
2021/07/26 05:07:12;;;;;;;0.70;0.70;;;25.30;53.30;;;;;;5060423;28;20068;-40
2021/07/26 05:09:40;;;;;;;4.28;1.08;;;25.20;53.30;;;;;;5060353;28;20110;-39
2021/07/26 05:12:12;;;;;;;1.50;0.98;;;25.20;53.40;;;;;;5064220;28;20628;-39
2021/07/26 05:14:39;;;;;;;2.97;1.15;;;25.20;53.50;;;;;;5063020;28;20048;-39
2021/07/26 05:17:06;;;;;;;2.60;1.15;;;25.20;54.20;;;;;;5081985;28;20038;-39
2021/07/26 05:19:35;;;;;;;1.50;1.00;;;25.20;53.70;;;;;;5065734;28;20064;-39
2021/07/26 05:22:02;;;;;;;2.22;0.88;;;25.20;53.80;;;;;;5064294;28;20071;-39
2021/07/26 05:24:29;;;;;;;1.77;0.85;;;25.20;53.80;;;;;;5066416;28;20516;-39
2021/07/26 05:27:00;;;;;;;1.13;1.13;;;25.10;53.80;;;;;;5060607;28;20052;-39
2021/07/26 05:29:28;;;;;;;3.65;1.20;;;25.10;53.90;;;;;;5064400;28;20128;-38
2021/07/26 05:31:55;;;;;;;1.92;1.48;;;25.10;54.00;;;;;;5066492;28;20814;-40
2021/07/26 05:34:22;;;;;;;1.48;0.57;;;25.10;54.10;;;;;;5061942;28;20127;-42
2021/07/26 05:36:51;;;;;;;3.28;1.35;;;25.10;54.10;;;;;;5065133;28;20047;-39
2021/07/26 05:39:18;;;;;;;5.38;0.73;;;25.10;54.10;;;;;;5067381;28;20041;-39
2021/07/26 05:41:45;;;;;;;1.02;0.68;;;25.10;54.20;;;;;;5067485;28;20044;-38
2021/07/26 05:44:13;;;;;;;1.42;1.20;;;25.10;54.20;;;;;;5063408;28;20084;-38
2021/07/26 05:46:40;;;;;;;2.47;0.70;;;25.00;54.20;;;;;;5060109;28;20510;-39
2021/07/26 05:49:07;;;;;;;3.40;0.93;;;25.00;54.20;;;;;;5054193;28;20052;-40
2021/07/26 05:51:34;;;;;;;0.60;0.60;;;25.00;54.20;;;;;;5064123;28;20133;-39
2021/07/26 05:54:04;;;;;;;0.90;0.82;;;25.00;54.90;;;;;;5058974;28;20067;-39
2021/07/26 05:56:37;;;;;;;1.50;1.13;;;25.00;54.40;;;;;;5062225;28;20541;-41
2021/07/26 05:59:04;;;;;;;0.60;0.60;;;25.00;54.40;;;;;;5063970;28;20046;-38
2021/07/26 06:01:47;;;;;;;2.03;0.80;;;25.00;54.50;;;;;;5065661;28;20127;-38
2021/07/26 06:04:16;;;;;;;2.00;1.33;;;25.00;54.50;;;;;;5061390;28;20086;-39
2021/07/26 06:06:44;;;;;;;1.30;1.20;;;25.00;54.50;;;;;;5064804;28;20475;-39
2021/07/26 06:09:13;;;;;;;1.40;0.60;;;25.00;54.60;;;;;;5056542;28;20115;-39
2021/07/26 06:11:42;;;;;;;1.20;0.60;;;25.00;54.60;;;;;;5065535;28;20127;-39
2021/07/26 06:14:10;;;;;;;4.85;1.23;;;25.00;54.60;;;;;;5067022;28;20145;-41
2021/07/26 06:16:41;;;;;;;3.75;0.80;;;25.00;54.60;;;;;;5064857;28;20055;-39
2021/07/26 06:19:10;;;;;;;3.97;0.77;;;25.00;54.70;;;;;;5063159;28;20041;-39
2021/07/26 06:21:45;;;;;;;5.57;1.10;;;25.00;54.70;;;;;;5062046;28;20701;-38
2021/07/26 06:24:14;;;;;;;2.25;0.60;;;25.00;54.80;;;;;;5066217;28;20072;-39
2021/07/26 06:26:42;;;;;;;3.15;1.15;;;24.90;54.80;;;;;;5054127;28;20044;-40
2021/07/26 06:29:10;;;;;;;4.38;1.40;;;24.90;54.80;;;;;;5062873;28;20602;-42
2021/07/26 06:31:37;;;;;;;3.67;1.60;;;24.90;54.90;;;;;;5066193;28;20517;-40
2021/07/26 06:34:06;;;;;;;8.38;1.58;;;24.90;54.90;;;;;;5066284;28;20040;-39
2021/07/26 06:36:35;;;;;;;2.22;1.13;;;24.90;55.00;;;;;;5064570;28;20506;-43
2021/07/26 06:39:04;;;;;;;3.15;1.10;;;24.90;55.00;;;;;;5064023;28;20064;-41
2021/07/26 06:41:32;;;;;;;3.45;1.52;;;24.90;55.00;;;;;;5060446;28;20073;-40
2021/07/26 06:44:00;;;;;;;2.35;1.67;;;24.90;55.00;;;;;;5059036;28;20208;-39
2021/07/26 06:46:27;;;;;;;7.70;2.35;;;24.90;55.10;;;;;;5057259;28;20064;-39
2021/07/26 06:48:54;;;;;;;4.70;2.05;;;25.00;55.10;;;;;;5066095;28;20142;-39
2021/07/26 06:51:22;;;;;;;4.65;1.75;;;25.00;55.10;;;;;;5063681;28;20090;-41
2021/07/26 06:53:50;;;;;;;1.88;1.77;;;25.00;55.10;;;;;;5067708;28;20048;-41
2021/07/26 06:56:17;;;;;;;6.45;2.47;;;24.90;55.20;;;;;;5063413;28;20671;-39
2021/07/26 06:58:45;;;;;;;2.08;1.67;;;24.90;55.20;;;;;;5063548;28;20040;-41
2021/07/26 07:01:14;;;;;;;3.17;2.75;;;24.90;55.40;;;;;;5052353;28;20040;-39
2021/07/26 07:03:42;;;;;;;4.25;1.50;;;24.90;55.50;;;;;;5062875;28;20095;-39
2021/07/26 07:06:11;;;;;;;8.80;2.58;;;24.90;55.70;;;;;;5055389;28;20041;-38
2021/07/26 07:08:39;;;;;;;6.72;2.28;;;24.90;56.00;;;;;;5059339;28;20533;-38
2021/07/26 07:11:07;;;;;;;3.38;1.77;;;24.90;56.30;;;;;;5062533;28;20045;-39
2021/07/26 07:13:35;;;;;;;4.53;2.20;;;24.90;56.50;;;;;;5062103;28;20575;-39
2021/07/26 07:16:07;;;;;;;2.35;1.55;;;24.90;56.80;;;;;;5064382;28;20051;-39
2021/07/26 07:18:34;;;;;;;4.15;1.13;;;24.90;57.00;;;;;;5056859;28;20048;-40
2021/07/26 07:21:01;;;;;;;4.38;2.03;;;24.90;57.10;;;;;;5067210;28;20041;-38
2021/07/26 07:23:28;;;;;;;2.30;2.17;;;24.90;57.10;;;;;;5057708;28;20128;-39
2021/07/26 07:25:55;;;;;;;5.43;1.33;;;24.90;57.20;;;;;;5058640;28;20048;-39
2021/07/26 07:28:24;;;;;;;3.20;1.92;;;24.90;57.30;;;;;;5063532;28;20052;-37
2021/07/26 07:30:51;;;;;;;4.13;2.47;;;24.80;57.40;;;;;;5063116;28;20161;-39
2021/07/26 07:33:19;;;;;;;2.97;1.90;;;24.90;57.60;;;;;;5054109;28;20122;-38
2021/07/26 07:35:47;;;;;;;2.72;2.35;;;24.90;57.60;;;;;;5057146;28;20572;-39
2021/07/26 07:38:14;;;;;;;3.35;2.63;;;24.80;57.60;;;;;;5056831;28;20455;-39
2021/07/26 07:40:41;;;;;;;3.42;2.90;;;24.80;57.70;;;;;;5057867;28;20533;-38
2021/07/26 07:43:08;;;;;;;4.47;3.00;;;24.80;57.70;;;;;;5063182;28;20048;-38
2021/07/26 07:45:35;;;;;;;5.38;3.50;;;24.80;57.80;;;;;;5058200;28;20047;-39
2021/07/26 07:48:02;;;;;;;6.15;2.67;;;24.80;58.00;;;;;;5063805;28;20136;-39
2021/07/26 07:50:31;;;;;;;6.70;2.42;;;24.80;58.30;;;;;;5055515;28;20033;-39
2021/07/26 07:52:58;;;;;;;3.83;2.65;;;24.80;58.40;;;;;;5056893;28;20067;-38
2021/07/26 07:55:26;;;;;;;3.08;2.78;;;24.80;58.50;;;;;;5054290;28;20556;-38
2021/07/26 07:57:53;;;;;;;9.48;3.17;;;24.80;58.50;;;;;;5052413;28;20072;-40
2021/07/26 08:00:22;;;;;;;5.43;3.30;;;24.80;58.60;;;;;;5064779;28;20040;-40
2021/07/26 08:02:49;;;;;;;7.35;2.80;;;24.80;58.70;;;;;;5064696;28;20052;-39
2021/07/26 08:05:18;;;;;;;6.35;3.75;;;24.80;58.70;;;;;;5063889;28;20123;-40
2021/07/26 08:07:47;;;;;;;7.88;3.72;;;24.80;58.80;;;;;;5062429;28;20582;-39
2021/07/26 08:10:15;;;;;;;9.55;6.07;;;24.80;58.90;;;;;;5062222;28;20052;-38
2021/07/26 08:12:43;;;;;;;3.95;3.50;;;24.80;59.00;;;;;;5060301;28;20506;-39
2021/07/26 08:15:11;;;;;;;5.45;4.32;;;24.80;59.00;;;;;;5052119;28;20912;-37
2021/07/26 08:17:42;;;;;;;9.85;4.65;;;24.80;59.20;;;;;;5065587;28;20413;-38
2021/07/26 08:20:12;;;;;;;4.63;3.78;;;24.80;59.20;;;;;;5064288;28;20068;-40
2021/07/26 08:22:39;;;;;;;13.65;4.45;;;24.80;59.20;;;;;;5065825;28;20049;-55
2021/07/26 08:25:11;;;;;;;5.35;4.20;;;24.90;59.20;;;;;;5064311;28;20139;-60
2021/07/26 08:27:52;;;;;;;4.18;3.58;;;24.90;59.20;;;;;;5055781;28;20044;-57
2021/07/26 08:30:20;;;;;;;5.35;4.30;;;24.90;59.10;;;;;;5060292;28;20044;-56
2021/07/26 08:32:48;;;;;;;4.28;3.60;;;24.90;59.00;;;;;;5061874;28;20357;-58
2021/07/26 08:35:15;;;;;;;5.20;3.03;;;24.90;58.90;;;;;;5062628;28;20068;-59
2021/07/26 08:37:42;;;;;;;9.25;3.80;;;24.90;58.90;;;;;;5062319;28;20190;-60
2021/07/26 08:40:12;;;;;;;4.10;3.78;;;24.90;58.90;;;;;;5054094;28;20045;-61
2021/07/26 08:42:40;;;;;;;3.70;3.03;;;24.90;58.80;;;;;;5071340;28;20114;-70
2021/07/26 08:45:09;;;;;;;4.18;3.88;;;24.90;58.70;;;;;;5071977;28;20140;-63
2021/07/26 08:47:39;;;;;;;3.38;3.05;;;25.00;58.60;;;;;;5067282;28;20071;-64
2021/07/26 08:50:07;;;;;;;3.45;2.72;;;25.00;58.50;;;;;;5078780;28;20051;-70
2021/07/26 08:52:39;;;;;;;3.97;2.67;;;25.00;58.70;;;;;;5059906;28;20137;-66
2021/07/26 08:55:10;;;;;;;5.25;3.38;;;25.00;58.90;;;;;;5059226;28;20671;-67
2021/07/26 08:57:42;;;;;;;2.78;2.53;;;25.00;58.80;;;;;;5054980;28;20041;-55
2021/07/26 09:00:10;;;;;;;8.65;2.75;;;25.00;58.80;;;;;;5066991;28;20075;-59
2021/07/26 09:02:38;;;;;;;3.47;2.47;;;25.10;58.90;;;;;;5057529;28;20151;-62
2021/07/26 09:05:07;;;;;;;6.05;3.00;;;25.10;59.40;;;;;;5061256;28;20474;-62
2021/07/26 09:07:38;;;;;;;5.97;2.83;;;25.10;59.70;;;;;;5056347;28;20132;-64
2021/07/26 09:10:13;;;;;;;10.45;3.17;;;25.20;59.90;;;;;;5066989;28;20052;-64
2021/07/26 09:12:42;;;;;;;2.13;2.03;;;25.30;59.70;;;;;;5053279;28;20068;-64
2021/07/26 09:15:28;;;;;;;3.10;1.92;;;25.50;59.00;;;;;;5056745;28;20073;-63
2021/07/26 09:17:59;;;;;;;3.97;2.28;;;25.70;58.40;;;;;;5065756;28;20391;-64
2021/07/26 09:20:29;;;;;;;3.30;2.00;;;25.80;57.90;;;;;;5067663;28;20631;-64
2021/07/26 09:22:57;;;;;;;2.80;2.60;;;26.00;57.60;;;;;;5061854;28;20517;-63
2021/07/26 09:25:26;;;;;;;2.47;2.30;;;26.10;57.30;;;;;;5069531;28;20041;-63
2021/07/26 09:28:07;;;;;;;5.50;3.35;;;26.30;57.10;;;;;;5067448;28;20044;-63
2021/07/26 09:30:46;;;;;;;5.43;2.90;;;26.50;56.70;;;;;;5051950;28;20071;-65
2021/07/26 09:33:19;;;;;;;4.43;2.92;;;26.70;56.10;;;;;;5065562;28;20043;-49
2021/07/26 09:35:46;;;;;;;3.95;3.50;;;26.80;55.70;;;;;;5067616;28;20040;-51
2021/07/26 09:38:16;;;;;;;5.60;3.50;;;27.00;55.70;;;;;;5066284;28;20122;-51
2021/07/26 09:40:47;;;;;;;3.58;3.03;;;27.10;56.00;;;;;;5068186;28;20098;-49
2021/07/26 09:43:19;;;;;;;4.97;2.78;;;27.20;55.00;;;;;;5061460;28;20053;-53
2021/07/26 09:45:47;;;;;;;2.72;2.50;;;27.30;54.90;;;;;;5066456;28;20099;-49
2021/07/26 09:48:15;;;;;;;5.20;3.42;;;27.30;54.40;;;;;;5068601;28;20560;-47
2021/07/26 09:50:44;;;;;;;2.70;2.47;;;27.40;54.50;;;;;;5060017;28;20040;-57
2021/07/26 09:53:13;;;;;;;3.80;3.38;;;27.50;54.50;;;;;;5067042;28;20677;-59
2021/07/26 09:55:42;;;;;;;2.85;1.92;;;27.50;54.20;;;;;;5064494;28;20036;-62
2021/07/26 09:58:11;;;;;;;2.08;1.88;;;27.60;54.30;;;;;;5066831;28;20460;-70
2021/07/26 10:00:40;;;;;;;1.65;1.55;;;27.60;54.10;;;;;;5066799;28;20049;-68
2021/07/26 10:03:08;;;;;;;2.60;2.42;;;27.60;54.20;;;;;;5057827;28;20106;-63
2021/07/26 10:05:36;;;;;;;2.53;2.33;;;27.70;54.20;;;;;;5062066;28;20099;-61
2021/07/26 10:08:04;;;;;;;3.58;3.28;;;27.70;53.90;;;;;;5077925;28;20460;-63
2021/07/26 10:10:34;;;;;;;3.65;2.05;;;27.80;53.80;;;;;;5056531;28;20511;-45
2021/07/26 10:13:02;;;;;;;3.63;2.75;;;27.80;53.90;;;;;;5063466;28;20403;-44
2021/07/26 10:15:31;;;;;;;4.07;3.55;;;27.80;54.00;;;;;;5052311;28;20041;-45
2021/07/26 10:18:00;;;;;;;3.65;3.42;;;27.80;53.80;;;;;;5068735;28;20106;-47
2021/07/26 10:20:29;;;;;;;4.20;3.85;;;27.90;53.80;;;;;;5067078;28;20136;-44
2021/07/26 10:23:01;;;;;;;4.68;3.58;;;27.90;53.90;;;;;;5063345;28;20047;-43
2021/07/26 10:25:33;;;;;;;3.80;3.50;;;28.00;53.80;;;;;;5056361;28;20839;-47
2021/07/26 10:28:03;;;;;;;4.20;3.80;;;28.00;53.70;;;;;;5053861;28;20502;-44
2021/07/26 10:30:35;;;;;;;4.43;3.95;;;28.00;53.50;;;;;;5064809;28;20055;-48
2021/07/26 10:33:06;;;;;;;3.83;3.53;;;28.00;53.20;;;;;;5059349;28;20060;-45
2021/07/26 10:35:41;;;;;;;2.85;2.65;;;28.10;52.90;;;;;;5065305;28;20036;-44
2021/07/26 10:38:10;;;;;;;3.60;3.30;;;28.10;52.80;;;;;;5058344;28;20056;-48
2021/07/26 10:40:41;;;;;;;3.28;2.97;;;28.10;52.70;;;;;;5071410;28;20514;-48
2021/07/26 10:43:13;;;;;;;2.45;2.33;;;28.20;52.50;;;;;;5052964;28;20048;-46
2021/07/26 10:46:00;;;;;;;3.65;3.35;;;28.20;52.20;;;;;;5050881;28;20143;-46
2021/07/26 10:48:35;;;;;;;5.82;2.85;;;28.30;52.30;;;;;;5063135;28;20455;-47
2021/07/26 10:51:03;;;;;;;;;;;28.30;52.10;;;;;;5058875;28;20040;-46
2021/07/26 10:54:00;;;;;;;2.45;2.35;;;28.20;51.70;;;;;;5065655;28;19920;-47
2021/07/26 10:56:27;;;;;;;2.95;2.75;;;28.30;51.30;;;;;;5065364;28;20583;-47
2021/07/26 10:59:05;;;;;;;2.80;2.38;;;28.30;51.40;;;;;;5063405;28;20044;-45
2021/07/26 11:02:00;;;;;;;2.38;2.28;;;28.30;51.40;;;;;;5063646;28;20517;-45
2021/07/26 11:04:35;;;;;;;2.22;2.13;;;28.30;51.20;;;;;;5063414;28;20032;-46
2021/07/26 11:07:05;;;;;;;4.78;1.80;;;28.30;50.90;;;;;;5055177;28;20044;-48
2021/07/26 11:09:48;;;;;;;2.17;2.08;;;28.30;50.70;;;;;;5053840;28;20040;-46
2021/07/26 11:12:32;;;;;;;1.67;1.58;;;28.30;50.50;;;;;;5062904;28;20044;-42
2021/07/26 11:15:15;;;;;;;1.73;1.63;;;28.20;50.20;;;;;;5054404;28;20041;-49
2021/07/26 11:18:28;;;;;;;1.65;1.55;;;28.30;50.50;;;;;;5066953;28;20048;-48
2021/07/26 11:21:08;;;;;;;4.75;2.60;;;28.30;50.60;;;;;;5062352;28;20605;-46
2021/07/26 11:23:51;;;;;;;2.80;2.17;;;28.30;50.80;;;;;;5060403;28;20053;-45
2021/07/26 11:26:29;;;;;;;1.40;1.05;;;28.30;50.20;;;;;;5059718;28;20446;-45
2021/07/26 11:28:59;;;;;;;1.70;1.25;;;28.30;50.40;;;;;;5057423;28;20137;-49
2021/07/26 11:31:31;;;;;;;1.00;0.90;;;28.40;50.60;;;;;;5056215;28;20040;-48
2021/07/26 11:34:10;;;;;;;1.00;1.00;;;28.40;50.50;;;;;;5053810;28;20044;-47
2021/07/26 11:37:02;;;;;;;2.50;1.20;;;28.40;49.90;;;;;;5047695;28;20152;-44
2021/07/26 11:39:43;;;;;;;1.00;1.00;;;28.40;49.60;;;;;;5053587;28;20151;-47
2021/07/26 11:42:10;;;;;;;1.67;1.02;;;28.40;49.70;;;;;;5051663;28;20041;-43
2021/07/26 11:44:37;;;;;;;1.02;1.00;;;28.40;50.10;;;;;;5064131;28;20048;-52
2021/07/26 11:47:05;;;;;;;1.20;0.60;;;28.50;50.20;;;;;;5060744;28;20059;-45
2021/07/26 11:49:33;;;;;;;0.98;0.70;;;28.60;50.50;;;;;;5055117;28;20132;-47
2021/07/26 11:52:09;;;;;;;2.67;0.90;;;28.60;50.00;;;;;;5055725;28;20064;-47
2021/07/26 11:54:36;;;;;;;;;;;28.70;49.30;;;;;;5047936;28;20055;-44
2021/07/26 11:57:07;;;;;;;0.98;0.40;;;28.70;49.10;;;;;;5067215;28;19924;-49
2021/07/26 11:59:35;;;;;;;2.33;0.77;;;28.70;48.70;;;;;;5056673;28;20135;-52
2021/07/26 12:02:07;;;;;;;1.00;1.00;;;28.80;48.50;;;;;;5061612;28;20051;-44
2021/07/26 12:04:35;;;;;;;1.00;1.00;;;28.80;48.30;;;;;;5060660;28;20119;-46
2021/07/26 12:07:05;;;;;;;2.17;0.80;;;28.80;48.80;;;;;;5062972;28;20040;-45
2021/07/26 12:09:34;;;;;;;1.70;1.58;;;28.90;49.60;;;;;;5052723;28;20073;-46
2021/07/26 12:12:12;;;;;;;1.30;1.02;;;28.90;48.60;;;;;;5061727;28;20052;-46
2021/07/26 12:14:41;;;;;;;1.20;1.20;;;29.00;48.90;;;;;;5053629;28;20037;-44
2021/07/26 12:17:10;;;;;;;2.70;1.52;;;29.00;49.20;;;;;;5059460;28;20139;-46
2021/07/26 12:19:39;;;;;;;2.92;1.60;;;29.10;48.80;;;;;;5062957;28;20068;-43
2021/07/26 12:22:21;;;;;;;0.98;0.98;;;29.10;48.60;;;;;;5061376;28;20098;-45
2021/07/26 12:25:01;;;;;;;1.00;1.00;;;29.20;48.50;;;;;;5058813;28;20142;-44
2021/07/26 12:27:34;;;;;;;1.48;1.45;;;29.20;48.90;;;;;;5063827;28;20033;-46
2021/07/26 12:30:04;;;;;;;1.52;1.48;;;29.20;48.10;;;;;;5067097;28;20048;-46
2021/07/26 12:32:33;;;;;;;1.55;1.45;;;29.30;48.10;;;;;;5057749;28;20494;-44
2021/07/26 12:35:33;;;;;;;1.98;1.73;;;29.30;47.60;;;;;;5061374;28;20053;-44
2021/07/26 12:38:02;;;;;;;2.25;2.08;;;29.40;47.30;;;;;;5062951;28;20055;-47
2021/07/26 12:40:32;;;;;;;5.32;1.88;;;29.50;48.00;;;;;;5063485;28;20067;-56
2021/07/26 12:43:08;;;;;;;2.55;2.38;;;29.50;47.00;;;;;;5063517;28;20048;-56
2021/07/26 12:45:36;;;;;;;3.63;2.05;;;29.60;46.90;;;;;;5066154;28;20052;-56
2021/07/26 12:48:13;;;;;;;5.57;2.58;;;29.60;46.90;;;;;;5063971;28;20454;-56
2021/07/26 12:50:42;;;;;;;2.58;1.90;;;29.70;46.60;;;;;;5064317;28;20061;-62
2021/07/26 12:53:10;;;;;;;1.80;1.70;;;29.70;46.70;;;;;;5063663;28;20545;-67
2021/07/26 12:55:39;;;;;;;2.60;2.28;;;29.70;46.90;;;;;;5064088;28;20136;-68
2021/07/26 12:58:06;;;;;;;1.80;1.73;;;29.80;47.30;;;;;;5065716;28;20123;-68
2021/07/26 13:00:34;;;;;;;3.47;2.05;;;29.90;47.50;;;;;;5054138;28;20193;-66